sensor_id;sensor_type;location;lat;lon;timestamp;P1;durP1;ratioP1;P2;durP2;ratioP2
43933;SDS011;59081;42.706;23.306;2022-11-09T00:02:21;41.65;;;22.10;;
43933;SDS011;59081;42.706;23.306;2022-11-09T00:04:47;38.03;;;22.17;;
43933;SDS011;59081;42.706;23.306;2022-11-09T00:07:15;40.45;;;23.55;;
43933;SDS011;59081;42.706;23.306;2022-11-09T00:09:40;40.95;;;23.73;;
43933;SDS011;59081;42.706;23.306;2022-11-09T00:12:06;41.22;;;22.35;;
43933;SDS011;59081;42.706;23.306;2022-11-09T00:14:32;38.25;;;24.30;;
43933;SDS011;59081;42.706;23.306;2022-11-09T00:16:58;48.63;;;24.05;;
43933;SDS011;59081;42.706;23.306;2022-11-09T00:19:25;43.42;;;23.60;;
43933;SDS011;59081;42.706;23.306;2022-11-09T00:21:51;46.25;;;23.33;;
43933;SDS011;59081;42.706;23.306;2022-11-09T00:24:16;40.47;;;22.88;;
43933;SDS011;59081;42.706;23.306;2022-11-09T00:26:42;40.03;;;22.50;;
43933;SDS011;59081;42.706;23.306;2022-11-09T00:29:10;34.70;;;20.00;;
43933;SDS011;59081;42.706;23.306;2022-11-09T00:31:35;35.08;;;20.33;;
43933;SDS011;59081;42.706;23.306;2022-11-09T00:34:01;38.75;;;19.92;;
43933;SDS011;59081;42.706;23.306;2022-11-09T00:36:28;35.17;;;20.58;;
43933;SDS011;59081;42.706;23.306;2022-11-09T00:38:55;40.38;;;22.02;;
43933;SDS011;59081;42.706;23.306;2022-11-09T00:41:22;34.22;;;20.63;;
43933;SDS011;59081;42.706;23.306;2022-11-09T00:43:48;38.65;;;21.92;;
43933;SDS011;59081;42.706;23.306;2022-11-09T00:46:14;36.70;;;21.25;;
43933;SDS011;59081;42.706;23.306;2022-11-09T00:48:40;35.13;;;21.77;;
43933;SDS011;59081;42.706;23.306;2022-11-09T00:51:06;33.97;;;20.85;;
43933;SDS011;59081;42.706;23.306;2022-11-09T00:53:32;36.35;;;21.70;;
43933;SDS011;59081;42.706;23.306;2022-11-09T00:55:58;39.85;;;22.70;;
43933;SDS011;59081;42.706;23.306;2022-11-09T00:58:29;42.35;;;23.08;;
43933;SDS011;59081;42.706;23.306;2022-11-09T01:00:57;38.80;;;22.08;;
43933;SDS011;59081;42.706;23.306;2022-11-09T01:03:24;37.92;;;21.70;;
43933;SDS011;59081;42.706;23.306;2022-11-09T01:05:53;35.75;;;21.80;;
43933;SDS011;59081;42.706;23.306;2022-11-09T01:08:21;39.03;;;21.65;;
43933;SDS011;59081;42.706;23.306;2022-11-09T01:10:47;37.72;;;22.17;;
43933;SDS011;59081;42.706;23.306;2022-11-09T01:13:13;42.00;;;24.27;;
43933;SDS011;59081;42.706;23.306;2022-11-09T01:15:41;42.03;;;23.42;;
43933;SDS011;59081;42.706;23.306;2022-11-09T01:18:09;41.55;;;22.42;;
43933;SDS011;59081;42.706;23.306;2022-11-09T01:20:39;41.70;;;22.45;;
43933;SDS011;59081;42.706;23.306;2022-11-09T01:23:12;38.67;;;23.33;;
43933;SDS011;59081;42.706;23.306;2022-11-09T01:25:39;32.28;;;19.63;;
43933;SDS011;59081;42.706;23.306;2022-11-09T01:28:05;35.70;;;19.02;;
43933;SDS011;59081;42.706;23.306;2022-11-09T01:30:35;33.75;;;18.80;;
43933;SDS011;59081;42.706;23.306;2022-11-09T01:35:31;33.20;;;18.08;;
43933;SDS011;59081;42.706;23.306;2022-11-09T01:37:58;31.38;;;18.45;;
43933;SDS011;59081;42.706;23.306;2022-11-09T01:40:25;32.15;;;18.60;;
43933;SDS011;59081;42.706;23.306;2022-11-09T01:42:52;32.67;;;18.08;;
43933;SDS011;59081;42.706;23.306;2022-11-09T01:45:20;35.85;;;18.13;;
43933;SDS011;59081;42.706;23.306;2022-11-09T01:48:03;32.17;;;17.83;;
43933;SDS011;59081;42.706;23.306;2022-11-09T01:50:55;33.53;;;17.92;;
43933;SDS011;59081;42.706;23.306;2022-11-09T01:53:26;31.75;;;18.45;;
43933;SDS011;59081;42.706;23.306;2022-11-09T01:55:58;31.00;;;19.35;;
43933;SDS011;59081;42.706;23.306;2022-11-09T01:58:31;31.70;;;17.92;;
43933;SDS011;59081;42.706;23.306;2022-11-09T02:01:02;33.80;;;18.50;;
43933;SDS011;59081;42.706;23.306;2022-11-09T02:03:33;35.25;;;20.35;;
43933;SDS011;59081;42.706;23.306;2022-11-09T02:06:02;39.95;;;19.65;;
43933;SDS011;59081;42.706;23.306;2022-11-09T02:08:30;33.38;;;19.40;;
43933;SDS011;59081;42.706;23.306;2022-11-09T02:11:03;37.22;;;19.38;;
43933;SDS011;59081;42.706;23.306;2022-11-09T02:13:38;35.53;;;18.52;;
43933;SDS011;59081;42.706;23.306;2022-11-09T02:16:09;34.38;;;18.63;;
43933;SDS011;59081;42.706;23.306;2022-11-09T02:18:46;37.45;;;19.33;;
43933;SDS011;59081;42.706;23.306;2022-11-09T02:21:15;33.90;;;18.25;;
43933;SDS011;59081;42.706;23.306;2022-11-09T02:23:41;30.92;;;19.00;;
43933;SDS011;59081;42.706;23.306;2022-11-09T02:26:08;34.50;;;19.30;;
43933;SDS011;59081;42.706;23.306;2022-11-09T02:28:37;37.75;;;19.55;;
43933;SDS011;59081;42.706;23.306;2022-11-09T02:31:06;34.53;;;18.65;;
43933;SDS011;59081;42.706;23.306;2022-11-09T02:33:41;30.92;;;18.33;;
43933;SDS011;59081;42.706;23.306;2022-11-09T02:36:19;38.13;;;20.30;;
43933;SDS011;59081;42.706;23.306;2022-11-09T02:38:45;32.30;;;18.60;;
43933;SDS011;59081;42.706;23.306;2022-11-09T02:41:10;36.10;;;19.65;;
43933;SDS011;59081;42.706;23.306;2022-11-09T02:43:37;34.42;;;18.95;;
43933;SDS011;59081;42.706;23.306;2022-11-09T02:46:03;30.80;;;18.95;;
43933;SDS011;59081;42.706;23.306;2022-11-09T02:48:29;30.98;;;19.00;;
43933;SDS011;59081;42.706;23.306;2022-11-09T02:50:54;35.25;;;17.85;;
43933;SDS011;59081;42.706;23.306;2022-11-09T02:53:20;35.80;;;19.25;;
43933;SDS011;59081;42.706;23.306;2022-11-09T02:55:46;31.00;;;17.10;;
43933;SDS011;59081;42.706;23.306;2022-11-09T02:58:11;33.38;;;17.83;;
43933;SDS011;59081;42.706;23.306;2022-11-09T03:00:37;30.83;;;17.77;;
43933;SDS011;59081;42.706;23.306;2022-11-09T03:03:03;29.83;;;17.13;;
43933;SDS011;59081;42.706;23.306;2022-11-09T03:05:29;29.77;;;17.48;;
43933;SDS011;59081;42.706;23.306;2022-11-09T03:07:54;29.70;;;18.00;;
43933;SDS011;59081;42.706;23.306;2022-11-09T03:10:21;29.13;;;16.98;;
43933;SDS011;59081;42.706;23.306;2022-11-09T03:12:47;31.83;;;17.75;;
43933;SDS011;59081;42.706;23.306;2022-11-09T03:15:12;28.67;;;17.33;;
43933;SDS011;59081;42.706;23.306;2022-11-09T03:17:38;29.85;;;18.23;;
43933;SDS011;59081;42.706;23.306;2022-11-09T03:20:04;33.03;;;18.75;;
43933;SDS011;59081;42.706;23.306;2022-11-09T03:22:30;35.45;;;18.88;;
43933;SDS011;59081;42.706;23.306;2022-11-09T03:24:56;34.80;;;19.98;;
43933;SDS011;59081;42.706;23.306;2022-11-09T03:27:22;33.22;;;19.67;;
43933;SDS011;59081;42.706;23.306;2022-11-09T03:29:47;37.97;;;21.33;;
43933;SDS011;59081;42.706;23.306;2022-11-09T03:32:15;32.97;;;19.23;;
43933;SDS011;59081;42.706;23.306;2022-11-09T03:34:41;36.15;;;20.30;;
43933;SDS011;59081;42.706;23.306;2022-11-09T03:37:07;38.20;;;20.35;;
43933;SDS011;59081;42.706;23.306;2022-11-09T03:39:32;35.30;;;20.15;;
43933;SDS011;59081;42.706;23.306;2022-11-09T03:41:58;36.67;;;20.10;;
43933;SDS011;59081;42.706;23.306;2022-11-09T03:44:24;35.90;;;20.17;;
43933;SDS011;59081;42.706;23.306;2022-11-09T03:46:49;40.28;;;19.30;;
43933;SDS011;59081;42.706;23.306;2022-11-09T03:49:15;38.10;;;18.70;;
43933;SDS011;59081;42.706;23.306;2022-11-09T03:51:40;34.70;;;19.85;;
43933;SDS011;59081;42.706;23.306;2022-11-09T03:54:11;32.35;;;17.85;;
43933;SDS011;59081;42.706;23.306;2022-11-09T03:56:37;29.52;;;17.55;;
43933;SDS011;59081;42.706;23.306;2022-11-09T03:59:03;35.70;;;18.30;;
43933;SDS011;59081;42.706;23.306;2022-11-09T04:01:29;31.38;;;18.38;;
43933;SDS011;59081;42.706;23.306;2022-11-09T04:03:57;32.30;;;18.73;;
43933;SDS011;59081;42.706;23.306;2022-11-09T04:06:29;32.75;;;18.67;;
43933;SDS011;59081;42.706;23.306;2022-11-09T04:09:00;32.22;;;18.17;;
43933;SDS011;59081;42.706;23.306;2022-11-09T04:11:29;35.90;;;18.90;;
43933;SDS011;59081;42.706;23.306;2022-11-09T04:14:00;32.70;;;18.23;;
43933;SDS011;59081;42.706;23.306;2022-11-09T04:16:29;35.13;;;18.48;;
43933;SDS011;59081;42.706;23.306;2022-11-09T04:19:00;31.75;;;18.60;;
43933;SDS011;59081;42.706;23.306;2022-11-09T04:21:34;37.47;;;19.33;;
43933;SDS011;59081;42.706;23.306;2022-11-09T04:24:03;34.78;;;18.95;;
43933;SDS011;59081;42.706;23.306;2022-11-09T04:26:30;33.05;;;17.60;;
43933;SDS011;59081;42.706;23.306;2022-11-09T04:28:56;29.13;;;17.20;;
43933;SDS011;59081;42.706;23.306;2022-11-09T04:31:24;31.80;;;17.25;;
43933;SDS011;59081;42.706;23.306;2022-11-09T04:33:56;34.72;;;17.65;;
43933;SDS011;59081;42.706;23.306;2022-11-09T04:36:24;37.38;;;18.40;;
43933;SDS011;59081;42.706;23.306;2022-11-09T04:41:26;31.40;;;16.83;;
43933;SDS011;59081;42.706;23.306;2022-11-09T04:44:03;34.35;;;18.50;;
43933;SDS011;59081;42.706;23.306;2022-11-09T04:46:29;30.17;;;18.17;;
43933;SDS011;59081;42.706;23.306;2022-11-09T04:48:57;33.08;;;17.90;;
43933;SDS011;59081;42.706;23.306;2022-11-09T04:51:28;33.83;;;18.52;;
43933;SDS011;59081;42.706;23.306;2022-11-09T04:53:55;32.88;;;19.88;;
43933;SDS011;59081;42.706;23.306;2022-11-09T04:56:23;32.03;;;18.50;;
43933;SDS011;59081;42.706;23.306;2022-11-09T04:58:52;34.92;;;19.60;;
43933;SDS011;59081;42.706;23.306;2022-11-09T05:01:18;39.15;;;21.30;;
43933;SDS011;59081;42.706;23.306;2022-11-09T05:03:44;32.45;;;18.88;;
43933;SDS011;59081;42.706;23.306;2022-11-09T05:06:09;38.88;;;20.00;;
43933;SDS011;59081;42.706;23.306;2022-11-09T05:08:54;34.75;;;20.25;;
43933;SDS011;59081;42.706;23.306;2022-11-09T05:11:20;36.10;;;20.83;;
43933;SDS011;59081;42.706;23.306;2022-11-09T05:13:49;45.53;;;20.58;;
43933;SDS011;59081;42.706;23.306;2022-11-09T05:16:18;34.65;;;19.35;;
43933;SDS011;59081;42.706;23.306;2022-11-09T05:18:47;40.50;;;21.08;;
43933;SDS011;59081;42.706;23.306;2022-11-09T05:21:13;41.55;;;21.33;;
43933;SDS011;59081;42.706;23.306;2022-11-09T05:23:41;43.28;;;21.13;;
43933;SDS011;59081;42.706;23.306;2022-11-09T05:26:26;34.85;;;19.50;;
43933;SDS011;59081;42.706;23.306;2022-11-09T05:28:55;41.50;;;20.95;;
43933;SDS011;59081;42.706;23.306;2022-11-09T05:31:23;46.05;;;22.10;;
43933;SDS011;59081;42.706;23.306;2022-11-09T05:33:52;46.55;;;25.73;;
43933;SDS011;59081;42.706;23.306;2022-11-09T05:36:18;51.95;;;28.33;;
43933;SDS011;59081;42.706;23.306;2022-11-09T05:38:45;38.17;;;21.75;;
43933;SDS011;59081;42.706;23.306;2022-11-09T05:41:13;41.28;;;21.83;;
43933;SDS011;59081;42.706;23.306;2022-11-09T05:43:40;41.72;;;22.55;;
43933;SDS011;59081;42.706;23.306;2022-11-09T05:46:13;47.78;;;23.77;;
43933;SDS011;59081;42.706;23.306;2022-11-09T05:48:42;40.30;;;23.20;;
43933;SDS011;59081;42.706;23.306;2022-11-09T05:51:11;42.53;;;22.00;;
43933;SDS011;59081;42.706;23.306;2022-11-09T05:53:37;51.67;;;25.08;;
43933;SDS011;59081;42.706;23.306;2022-11-09T05:56:11;44.92;;;23.40;;
43933;SDS011;59081;42.706;23.306;2022-11-09T05:58:37;52.65;;;29.88;;
43933;SDS011;59081;42.706;23.306;2022-11-09T06:01:08;43.80;;;25.80;;
43933;SDS011;59081;42.706;23.306;2022-11-09T06:03:35;44.85;;;24.33;;
43933;SDS011;59081;42.706;23.306;2022-11-09T06:06:04;45.22;;;23.27;;
43933;SDS011;59081;42.706;23.306;2022-11-09T06:08:33;39.78;;;24.08;;
43933;SDS011;59081;42.706;23.306;2022-11-09T06:11:00;37.88;;;21.88;;
43933;SDS011;59081;42.706;23.306;2022-11-09T06:13:33;38.47;;;23.58;;
43933;SDS011;59081;42.706;23.306;2022-11-09T06:16:02;38.03;;;22.27;;
43933;SDS011;59081;42.706;23.306;2022-11-09T06:18:29;42.83;;;23.25;;
43933;SDS011;59081;42.706;23.306;2022-11-09T06:20:57;41.72;;;23.70;;
43933;SDS011;59081;42.706;23.306;2022-11-09T06:23:24;43.47;;;23.42;;
43933;SDS011;59081;42.706;23.306;2022-11-09T06:25:57;43.05;;;23.33;;
43933;SDS011;59081;42.706;23.306;2022-11-09T06:28:24;44.88;;;22.50;;
43933;SDS011;59081;42.706;23.306;2022-11-09T06:30:50;45.90;;;23.65;;
43933;SDS011;59081;42.706;23.306;2022-11-09T06:33:16;43.65;;;23.70;;
43933;SDS011;59081;42.706;23.306;2022-11-09T06:35:42;44.00;;;22.52;;
43933;SDS011;59081;42.706;23.306;2022-11-09T06:38:08;43.72;;;23.13;;
43933;SDS011;59081;42.706;23.306;2022-11-09T06:40:35;43.28;;;23.58;;
43933;SDS011;59081;42.706;23.306;2022-11-09T06:43:01;47.35;;;25.20;;
43933;SDS011;59081;42.706;23.306;2022-11-09T06:45:28;41.45;;;25.50;;
43933;SDS011;59081;42.706;23.306;2022-11-09T06:47:57;39.40;;;22.95;;
43933;SDS011;59081;42.706;23.306;2022-11-09T06:50:25;46.90;;;23.83;;
43933;SDS011;59081;42.706;23.306;2022-11-09T06:52:59;43.42;;;23.77;;
43933;SDS011;59081;42.706;23.306;2022-11-09T06:55:29;43.25;;;24.17;;
43933;SDS011;59081;42.706;23.306;2022-11-09T06:57:55;46.95;;;24.50;;
43933;SDS011;59081;42.706;23.306;2022-11-09T07:00:22;41.47;;;24.80;;
43933;SDS011;59081;42.706;23.306;2022-11-09T07:02:50;37.47;;;22.95;;
43933;SDS011;59081;42.706;23.306;2022-11-09T07:05:16;40.25;;;22.45;;
43933;SDS011;59081;42.706;23.306;2022-11-09T07:07:44;44.25;;;24.52;;
43933;SDS011;59081;42.706;23.306;2022-11-09T07:10:10;40.88;;;24.75;;
43933;SDS011;59081;42.706;23.306;2022-11-09T07:12:36;42.70;;;23.63;;
43933;SDS011;59081;42.706;23.306;2022-11-09T07:15:05;52.72;;;24.25;;
43933;SDS011;59081;42.706;23.306;2022-11-09T07:17:42;40.03;;;22.98;;
43933;SDS011;59081;42.706;23.306;2022-11-09T07:20:08;45.33;;;25.85;;
43933;SDS011;59081;42.706;23.306;2022-11-09T07:22:37;41.20;;;21.40;;
43933;SDS011;59081;42.706;23.306;2022-11-09T07:25:05;42.53;;;25.15;;
43933;SDS011;59081;42.706;23.306;2022-11-09T07:27:31;40.38;;;22.35;;
43933;SDS011;59081;42.706;23.306;2022-11-09T07:29:57;41.25;;;22.45;;
43933;SDS011;59081;42.706;23.306;2022-11-09T07:32:28;42.38;;;24.88;;
43933;SDS011;59081;42.706;23.306;2022-11-09T07:34:58;62.03;;;24.55;;
43933;SDS011;59081;42.706;23.306;2022-11-09T07:37:24;46.65;;;26.08;;
43933;SDS011;59081;42.706;23.306;2022-11-09T07:39:49;39.42;;;24.75;;
43933;SDS011;59081;42.706;23.306;2022-11-09T07:42:15;42.45;;;23.73;;
43933;SDS011;59081;42.706;23.306;2022-11-09T07:44:40;38.22;;;23.67;;
43933;SDS011;59081;42.706;23.306;2022-11-09T07:47:06;41.95;;;24.73;;
43933;SDS011;59081;42.706;23.306;2022-11-09T07:49:31;48.65;;;24.58;;
43933;SDS011;59081;42.706;23.306;2022-11-09T07:51:59;51.83;;;25.40;;
43933;SDS011;59081;42.706;23.306;2022-11-09T07:54:25;42.78;;;22.70;;
43933;SDS011;59081;42.706;23.306;2022-11-09T07:56:51;38.63;;;21.67;;
43933;SDS011;59081;42.706;23.306;2022-11-09T07:59:17;37.95;;;24.08;;
43933;SDS011;59081;42.706;23.306;2022-11-09T08:01:43;40.30;;;25.35;;
43933;SDS011;59081;42.706;23.306;2022-11-09T08:04:08;42.35;;;25.90;;
43933;SDS011;59081;42.706;23.306;2022-11-09T08:06:34;43.72;;;26.27;;
43933;SDS011;59081;42.706;23.306;2022-11-09T08:09:00;45.75;;;25.80;;
43933;SDS011;59081;42.706;23.306;2022-11-09T08:11:26;43.03;;;26.88;;
43933;SDS011;59081;42.706;23.306;2022-11-09T08:13:51;46.58;;;25.92;;
43933;SDS011;59081;42.706;23.306;2022-11-09T08:16:17;43.45;;;25.77;;
43933;SDS011;59081;42.706;23.306;2022-11-09T08:18:42;52.92;;;26.05;;
43933;SDS011;59081;42.706;23.306;2022-11-09T08:21:08;46.65;;;27.33;;
43933;SDS011;59081;42.706;23.306;2022-11-09T08:23:34;48.47;;;27.48;;
43933;SDS011;59081;42.706;23.306;2022-11-09T08:26:03;50.05;;;27.17;;
43933;SDS011;59081;42.706;23.306;2022-11-09T08:28:29;40.35;;;24.08;;
43933;SDS011;59081;42.706;23.306;2022-11-09T08:30:56;47.10;;;26.08;;
43933;SDS011;59081;42.706;23.306;2022-11-09T08:33:25;49.50;;;29.63;;
43933;SDS011;59081;42.706;23.306;2022-11-09T08:35:52;49.92;;;27.27;;
43933;SDS011;59081;42.706;23.306;2022-11-09T08:38:18;42.65;;;28.08;;
43933;SDS011;59081;42.706;23.306;2022-11-09T08:40:44;40.53;;;26.67;;
43933;SDS011;59081;42.706;23.306;2022-11-09T08:43:09;39.85;;;24.08;;
43933;SDS011;59081;42.706;23.306;2022-11-09T08:45:37;44.47;;;24.45;;
43933;SDS011;59081;42.706;23.306;2022-11-09T08:48:04;43.97;;;23.05;;
43933;SDS011;59081;42.706;23.306;2022-11-09T08:50:31;47.30;;;28.02;;
43933;SDS011;59081;42.706;23.306;2022-11-09T08:52:59;45.65;;;24.75;;
43933;SDS011;59081;42.706;23.306;2022-11-09T08:55:24;45.13;;;27.08;;
43933;SDS011;59081;42.706;23.306;2022-11-09T08:57:54;43.13;;;26.80;;
43933;SDS011;59081;42.706;23.306;2022-11-09T09:00:20;44.35;;;25.05;;
43933;SDS011;59081;42.706;23.306;2022-11-09T09:02:46;43.72;;;27.27;;
43933;SDS011;59081;42.706;23.306;2022-11-09T09:05:12;43.85;;;26.58;;
43933;SDS011;59081;42.706;23.306;2022-11-09T09:07:38;53.17;;;26.40;;
43933;SDS011;59081;42.706;23.306;2022-11-09T09:10:03;51.00;;;27.27;;
43933;SDS011;59081;42.706;23.306;2022-11-09T09:12:29;39.65;;;25.75;;
43933;SDS011;59081;42.706;23.306;2022-11-09T09:14:55;41.25;;;26.73;;
43933;SDS011;59081;42.706;23.306;2022-11-09T09:17:21;40.47;;;26.50;;
43933;SDS011;59081;42.706;23.306;2022-11-09T09:19:46;44.38;;;27.35;;
43933;SDS011;59081;42.706;23.306;2022-11-09T09:22:12;42.30;;;27.17;;
43933;SDS011;59081;42.706;23.306;2022-11-09T09:24:37;39.30;;;26.17;;
43933;SDS011;59081;42.706;23.306;2022-11-09T09:27:03;44.00;;;26.80;;
43933;SDS011;59081;42.706;23.306;2022-11-09T09:29:28;43.88;;;27.05;;
43933;SDS011;59081;42.706;23.306;2022-11-09T09:31:54;45.58;;;27.02;;
43933;SDS011;59081;42.706;23.306;2022-11-09T09:34:19;41.60;;;27.02;;
43933;SDS011;59081;42.706;23.306;2022-11-09T09:36:45;42.17;;;27.63;;
43933;SDS011;59081;42.706;23.306;2022-11-09T09:39:10;43.83;;;27.17;;
43933;SDS011;59081;42.706;23.306;2022-11-09T09:41:44;45.53;;;26.55;;
43933;SDS011;59081;42.706;23.306;2022-11-09T09:46:49;42.97;;;26.13;;
43933;SDS011;59081;42.706;23.306;2022-11-09T09:49:26;41.58;;;26.70;;
43933;SDS011;59081;42.706;23.306;2022-11-09T09:51:57;45.00;;;25.92;;
43933;SDS011;59081;42.706;23.306;2022-11-09T09:54:29;44.80;;;25.83;;
43933;SDS011;59081;42.706;23.306;2022-11-09T09:59:37;44.92;;;25.25;;
43933;SDS011;59081;42.706;23.306;2022-11-09T10:02:10;44.40;;;25.50;;
43933;SDS011;59081;42.706;23.306;2022-11-09T10:04:40;34.35;;;22.20;;
43933;SDS011;59081;42.706;23.306;2022-11-09T10:09:44;34.17;;;22.63;;
43933;SDS011;59081;42.706;23.306;2022-11-09T10:15:33;36.42;;;25.02;;
43933;SDS011;59081;42.706;23.306;2022-11-09T10:23:56;38.25;;;22.02;;
43933;SDS011;59081;42.706;23.306;2022-11-09T10:26:40;31.38;;;21.35;;
43933;SDS011;59081;42.706;23.306;2022-11-09T10:31:48;31.50;;;21.33;;
43933;SDS011;59081;42.706;23.306;2022-11-09T10:34:28;35.70;;;21.80;;
43933;SDS011;59081;42.706;23.306;2022-11-09T10:37:08;36.65;;;23.02;;
43933;SDS011;59081;42.706;23.306;2022-11-09T10:39:41;35.08;;;24.15;;
43933;SDS011;59081;42.706;23.306;2022-11-09T10:42:11;34.17;;;23.92;;
43933;SDS011;59081;42.706;23.306;2022-11-09T10:44:36;33.17;;;22.15;;
43933;SDS011;59081;42.706;23.306;2022-11-09T10:49:31;30.95;;;21.95;;
43933;SDS011;59081;42.706;23.306;2022-11-09T10:51:57;31.00;;;21.45;;
43933;SDS011;59081;42.706;23.306;2022-11-09T10:59:51;36.65;;;23.08;;
43933;SDS011;59081;42.706;23.306;2022-11-09T11:07:31;38.38;;;22.15;;
43933;SDS011;59081;42.706;23.306;2022-11-09T11:10:08;38.10;;;21.95;;
43933;SDS011;59081;42.706;23.306;2022-11-09T11:12:44;34.92;;;21.35;;
43933;SDS011;59081;42.706;23.306;2022-11-09T11:17:59;36.97;;;22.45;;
43933;SDS011;59081;42.706;23.306;2022-11-09T11:23:04;32.47;;;22.17;;
43933;SDS011;59081;42.706;23.306;2022-11-09T11:25:36;33.90;;;22.17;;
43933;SDS011;59081;42.706;23.306;2022-11-09T11:31:02;37.40;;;22.63;;
43933;SDS011;59081;42.706;23.306;2022-11-09T11:33:31;30.40;;;23.15;;
43933;SDS011;59081;42.706;23.306;2022-11-09T11:38:48;37.30;;;21.75;;
43933;SDS011;59081;42.706;23.306;2022-11-09T11:47:36;30.60;;;19.23;;
43933;SDS011;59081;42.706;23.306;2022-11-09T11:50:34;29.17;;;19.77;;
43933;SDS011;59081;42.706;23.306;2022-11-09T12:04:12;35.10;;;21.08;;
43933;SDS011;59081;42.706;23.306;2022-11-09T12:12:34;27.83;;;20.80;;
43933;SDS011;59081;42.706;23.306;2022-11-09T12:17:55;31.55;;;19.63;;
43933;SDS011;59081;42.706;23.306;2022-11-09T12:23:19;29.95;;;21.30;;
43933;SDS011;59081;42.706;23.306;2022-11-09T12:29:19;32.38;;;20.50;;
43933;SDS011;59081;42.706;23.306;2022-11-09T12:37:10;33.05;;;21.27;;
43933;SDS011;59081;42.706;23.306;2022-11-09T12:39:44;40.75;;;22.55;;
43933;SDS011;59081;42.706;23.306;2022-11-09T12:42:19;32.95;;;20.70;;
43933;SDS011;59081;42.706;23.306;2022-11-09T12:47:46;32.30;;;19.13;;
43933;SDS011;59081;42.706;23.306;2022-11-09T12:50:13;29.55;;;19.70;;
43933;SDS011;59081;42.706;23.306;2022-11-09T12:52:41;28.73;;;19.40;;
43933;SDS011;59081;42.706;23.306;2022-11-09T12:55:12;25.60;;;19.10;;
43933;SDS011;59081;42.706;23.306;2022-11-09T12:57:43;28.08;;;19.27;;
43933;SDS011;59081;42.706;23.306;2022-11-09T13:00:45;26.77;;;18.58;;
43933;SDS011;59081;42.706;23.306;2022-11-09T13:02:58;26.33;;;17.63;;
43933;SDS011;59081;42.706;23.306;2022-11-09T13:05:30;28.92;;;18.77;;
43933;SDS011;59081;42.706;23.306;2022-11-09T13:10:30;28.40;;;17.98;;
43933;SDS011;59081;42.706;23.306;2022-11-09T13:13:03;28.58;;;18.30;;
43933;SDS011;59081;42.706;23.306;2022-11-09T13:20:54;25.60;;;17.55;;
43933;SDS011;59081;42.706;23.306;2022-11-09T13:23:24;24.88;;;17.98;;
43933;SDS011;59081;42.706;23.306;2022-11-09T13:25:52;30.52;;;18.50;;
43933;SDS011;59081;42.706;23.306;2022-11-09T13:30:53;25.20;;;18.02;;
43933;SDS011;59081;42.706;23.306;2022-11-09T13:35:57;33.67;;;19.63;;
43933;SDS011;59081;42.706;23.306;2022-11-09T13:38:36;28.67;;;19.48;;
43933;SDS011;59081;42.706;23.306;2022-11-09T13:44:15;29.10;;;19.52;;
43933;SDS011;59081;42.706;23.306;2022-11-09T13:46:43;33.40;;;19.40;;
43933;SDS011;59081;42.706;23.306;2022-11-09T13:55:14;27.00;;;20.35;;
43933;SDS011;59081;42.706;23.306;2022-11-09T13:58:05;28.63;;;21.15;;
43933;SDS011;59081;42.706;23.306;2022-11-09T14:00:43;34.22;;;21.13;;
43933;SDS011;59081;42.706;23.306;2022-11-09T14:05:44;33.13;;;21.45;;
43933;SDS011;59081;42.706;23.306;2022-11-09T14:08:21;38.47;;;22.03;;
43933;SDS011;59081;42.706;23.306;2022-11-09T14:16:49;36.03;;;22.80;;
43933;SDS011;59081;42.706;23.306;2022-11-09T14:21:55;37.22;;;21.70;;
43933;SDS011;59081;42.706;23.306;2022-11-09T14:24:23;34.50;;;22.73;;
43933;SDS011;59081;42.706;23.306;2022-11-09T14:27:44;52.63;;;23.60;;
43933;SDS011;59081;42.706;23.306;2022-11-09T14:34:42;36.90;;;23.08;;
43933;SDS011;59081;42.706;23.306;2022-11-09T14:37:07;32.47;;;23.30;;
43933;SDS011;59081;42.706;23.306;2022-11-09T14:39:36;51.80;;;23.27;;
43933;SDS011;59081;42.706;23.306;2022-11-09T14:42:02;39.50;;;22.77;;
43933;SDS011;59081;42.706;23.306;2022-11-09T14:44:34;33.40;;;22.52;;
43933;SDS011;59081;42.706;23.306;2022-11-09T14:47:14;36.63;;;21.65;;
43933;SDS011;59081;42.706;23.306;2022-11-09T14:49:42;36.63;;;22.02;;
43933;SDS011;59081;42.706;23.306;2022-11-09T14:52:15;34.40;;;23.02;;
43933;SDS011;59081;42.706;23.306;2022-11-09T14:54:44;39.70;;;22.33;;
43933;SDS011;59081;42.706;23.306;2022-11-09T14:57:13;43.67;;;24.15;;
43933;SDS011;59081;42.706;23.306;2022-11-09T14:59:40;42.78;;;24.65;;
43933;SDS011;59081;42.706;23.306;2022-11-09T15:02:12;42.88;;;23.67;;
43933;SDS011;59081;42.706;23.306;2022-11-09T15:04:58;36.75;;;24.25;;
43933;SDS011;59081;42.706;23.306;2022-11-09T15:07:26;38.80;;;22.33;;
43933;SDS011;59081;42.706;23.306;2022-11-09T15:09:58;39.70;;;24.23;;
43933;SDS011;59081;42.706;23.306;2022-11-09T15:12:27;49.53;;;26.98;;
43933;SDS011;59081;42.706;23.306;2022-11-09T15:14:57;45.88;;;25.70;;
43933;SDS011;59081;42.706;23.306;2022-11-09T15:17:29;45.00;;;25.25;;
43933;SDS011;59081;42.706;23.306;2022-11-09T15:19:58;44.65;;;26.67;;
43933;SDS011;59081;42.706;23.306;2022-11-09T15:30:44;54.10;;;28.25;;
43933;SDS011;59081;42.706;23.306;2022-11-09T15:36:20;49.10;;;27.13;;
43933;SDS011;59081;42.706;23.306;2022-11-09T15:38:54;46.42;;;26.80;;
43933;SDS011;59081;42.706;23.306;2022-11-09T15:41:23;50.38;;;28.25;;
43933;SDS011;59081;42.706;23.306;2022-11-09T15:43:49;45.67;;;28.38;;
43933;SDS011;59081;42.706;23.306;2022-11-09T15:46:19;59.33;;;29.63;;
43933;SDS011;59081;42.706;23.306;2022-11-09T15:48:53;51.08;;;30.48;;
43933;SDS011;59081;42.706;23.306;2022-11-09T15:51:21;47.10;;;25.65;;
43933;SDS011;59081;42.706;23.306;2022-11-09T15:53:47;53.30;;;27.65;;
43933;SDS011;59081;42.706;23.306;2022-11-09T15:56:17;54.55;;;27.60;;
43933;SDS011;59081;42.706;23.306;2022-11-09T15:58:48;54.05;;;27.13;;
43933;SDS011;59081;42.706;23.306;2022-11-09T16:01:16;49.92;;;27.08;;
43933;SDS011;59081;42.706;23.306;2022-11-09T16:03:44;50.30;;;27.48;;
43933;SDS011;59081;42.706;23.306;2022-11-09T16:06:10;42.58;;;27.30;;
43933;SDS011;59081;42.706;23.306;2022-11-09T16:08:39;52.60;;;28.08;;
43933;SDS011;59081;42.706;23.306;2022-11-09T16:11:04;59.22;;;29.60;;
43933;SDS011;59081;42.706;23.306;2022-11-09T16:13:32;67.00;;;30.80;;
43933;SDS011;59081;42.706;23.306;2022-11-09T16:16:03;65.55;;;32.00;;
43933;SDS011;59081;42.706;23.306;2022-11-09T16:18:31;54.25;;;28.80;;
43933;SDS011;59081;42.706;23.306;2022-11-09T16:20:57;56.50;;;29.67;;
43933;SDS011;59081;42.706;23.306;2022-11-09T16:23:31;53.08;;;27.75;;
43933;SDS011;59081;42.706;23.306;2022-11-09T16:25:57;54.72;;;27.88;;
43933;SDS011;59081;42.706;23.306;2022-11-09T16:28:23;57.95;;;29.05;;
43933;SDS011;59081;42.706;23.306;2022-11-09T16:30:51;61.85;;;30.75;;
43933;SDS011;59081;42.706;23.306;2022-11-09T16:33:17;51.05;;;30.48;;
43933;SDS011;59081;42.706;23.306;2022-11-09T16:35:43;60.00;;;30.67;;
43933;SDS011;59081;42.706;23.306;2022-11-09T16:38:08;61.97;;;31.67;;